sensor_id;sensor_type;location;lat;lon;timestamp;P1;durP1;ratioP1;P2;durP2;ratioP2
21569;SDS011;57598;50.888;4.746;2023-09-08T00:01:30;62.90;;;57.30;;
21569;SDS011;57598;50.888;4.746;2023-09-08T00:03:58;64.30;;;58.50;;
21569;SDS011;57598;50.888;4.746;2023-09-08T00:06:25;63.30;;;57.67;;
21569;SDS011;57598;50.888;4.746;2023-09-08T00:08:52;63.88;;;58.28;;
21569;SDS011;57598;50.888;4.746;2023-09-08T00:11:19;64.40;;;58.70;;
21569;SDS011;57598;50.888;4.746;2023-09-08T00:13:47;66.10;;;60.20;;
21569;SDS011;57598;50.888;4.746;2023-09-08T00:16:16;62.75;;;57.25;;
21569;SDS011;57598;50.888;4.746;2023-09-08T00:18:44;67.30;;;61.30;;
21569;SDS011;57598;50.888;4.746;2023-09-08T00:21:11;66.13;;;60.22;;
21569;SDS011;57598;50.888;4.746;2023-09-08T00:23:38;65.00;;;59.25;;
21569;SDS011;57598;50.888;4.746;2023-09-08T00:26:05;64.78;;;58.97;;
21569;SDS011;57598;50.888;4.746;2023-09-08T00:28:32;65.18;;;59.30;;
21569;SDS011;57598;50.888;4.746;2023-09-08T00:31:00;63.67;;;57.97;;
21569;SDS011;57598;50.888;4.746;2023-09-08T00:33:28;65.32;;;59.42;;
21569;SDS011;57598;50.888;4.746;2023-09-08T00:35:56;64.22;;;58.42;;
21569;SDS011;57598;50.888;4.746;2023-09-08T00:38:23;62.90;;;57.13;;
21569;SDS011;57598;50.888;4.746;2023-09-08T00:40:51;64.32;;;58.53;;
21569;SDS011;57598;50.888;4.746;2023-09-08T00:43:18;65.95;;;60.05;;
21569;SDS011;57598;50.888;4.746;2023-09-08T00:45:45;63.85;;;57.83;;
21569;SDS011;57598;50.888;4.746;2023-09-08T00:48:13;65.78;;;59.88;;
21569;SDS011;57598;50.888;4.746;2023-09-08T00:50:41;65.60;;;59.80;;
21569;SDS011;57598;50.888;4.746;2023-09-08T00:53:10;66.45;;;60.45;;
21569;SDS011;57598;50.888;4.746;2023-09-08T00:55:37;66.55;;;60.45;;
21569;SDS011;57598;50.888;4.746;2023-09-08T00:58:06;65.03;;;59.13;;
21569;SDS011;57598;50.888;4.746;2023-09-08T01:00:33;64.10;;;58.30;;
21569;SDS011;57598;50.888;4.746;2023-09-08T01:03:00;66.25;;;60.30;;
21569;SDS011;57598;50.888;4.746;2023-09-08T01:05:28;65.25;;;59.35;;
21569;SDS011;57598;50.888;4.746;2023-09-08T01:07:57;67.15;;;61.15;;
21569;SDS011;57598;50.888;4.746;2023-09-08T01:10:26;64.88;;;58.95;;
21569;SDS011;57598;50.888;4.746;2023-09-08T01:12:53;64.32;;;58.42;;
21569;SDS011;57598;50.888;4.746;2023-09-08T01:15:21;67.45;;;61.45;;
21569;SDS011;57598;50.888;4.746;2023-09-08T01:17:48;66.10;;;60.20;;
21569;SDS011;57598;50.888;4.746;2023-09-08T01:20:16;64.68;;;58.83;;
21569;SDS011;57598;50.888;4.746;2023-09-08T01:23:07;66.40;;;60.35;;
21569;SDS011;57598;50.888;4.746;2023-09-08T01:25:40;66.47;;;60.38;;
21569;SDS011;57598;50.888;4.746;2023-09-08T01:30:36;64.72;;;58.72;;
21569;SDS011;57598;50.888;4.746;2023-09-08T01:33:04;65.15;;;59.15;;
21569;SDS011;57598;50.888;4.746;2023-09-08T01:35:31;65.18;;;59.15;;
21569;SDS011;57598;50.888;4.746;2023-09-08T01:37:58;64.90;;;58.90;;
21569;SDS011;57598;50.888;4.746;2023-09-08T01:40:26;65.78;;;59.67;;
21569;SDS011;57598;50.888;4.746;2023-09-08T01:42:55;67.93;;;61.78;;
21569;SDS011;57598;50.888;4.746;2023-09-08T01:45:22;67.75;;;61.55;;
21569;SDS011;57598;50.888;4.746;2023-09-08T01:47:49;66.97;;;60.88;;
21569;SDS011;57598;50.888;4.746;2023-09-08T01:50:16;69.32;;;63.03;;
21569;SDS011;57598;50.888;4.746;2023-09-08T01:52:47;68.33;;;62.07;;
21569;SDS011;57598;50.888;4.746;2023-09-08T01:55:14;65.05;;;58.97;;
21569;SDS011;57598;50.888;4.746;2023-09-08T01:57:42;66.72;;;60.63;;
21569;SDS011;57598;50.888;4.746;2023-09-08T02:00:11;66.18;;;60.17;;
21569;SDS011;57598;50.888;4.746;2023-09-08T02:02:39;64.75;;;58.75;;
21569;SDS011;57598;50.888;4.746;2023-09-08T02:05:06;66.25;;;60.20;;
21569;SDS011;57598;50.888;4.746;2023-09-08T02:07:34;64.55;;;58.65;;
21569;SDS011;57598;50.888;4.746;2023-09-08T02:10:01;68.20;;;61.90;;
21569;SDS011;57598;50.888;4.746;2023-09-08T02:12:29;65.68;;;59.67;;
21569;SDS011;57598;50.888;4.746;2023-09-08T02:14:56;65.20;;;59.20;;
21569;SDS011;57598;50.888;4.746;2023-09-08T02:17:26;66.45;;;60.28;;
21569;SDS011;57598;50.888;4.746;2023-09-08T02:19:53;64.63;;;58.72;;
21569;SDS011;57598;50.888;4.746;2023-09-08T02:22:21;65.35;;;59.30;;
21569;SDS011;57598;50.888;4.746;2023-09-08T02:24:48;65.78;;;59.78;;
21569;SDS011;57598;50.888;4.746;2023-09-08T02:27:17;66.30;;;60.30;;
21569;SDS011;57598;50.888;4.746;2023-09-08T02:29:44;65.00;;;58.95;;
21569;SDS011;57598;50.888;4.746;2023-09-08T02:32:11;66.60;;;60.50;;
21569;SDS011;57598;50.888;4.746;2023-09-08T02:34:41;67.20;;;61.15;;
21569;SDS011;57598;50.888;4.746;2023-09-08T02:37:08;66.50;;;60.40;;
21569;SDS011;57598;50.888;4.746;2023-09-08T02:39:35;67.05;;;61.05;;
21569;SDS011;57598;50.888;4.746;2023-09-08T02:42:03;67.43;;;61.42;;
21569;SDS011;57598;50.888;4.746;2023-09-08T02:44:31;67.15;;;61.05;;
21569;SDS011;57598;50.888;4.746;2023-09-08T02:46:58;66.55;;;60.50;;
21569;SDS011;57598;50.888;4.746;2023-09-08T02:49:26;66.95;;;60.90;;
21569;SDS011;57598;50.888;4.746;2023-09-08T02:51:54;66.35;;;60.25;;
21569;SDS011;57598;50.888;4.746;2023-09-08T02:54:22;67.18;;;60.97;;
21569;SDS011;57598;50.888;4.746;2023-09-08T02:56:49;66.50;;;60.30;;
21569;SDS011;57598;50.888;4.746;2023-09-08T02:59:16;65.75;;;59.65;;
21569;SDS011;57598;50.888;4.746;2023-09-08T03:01:43;69.53;;;63.13;;
21569;SDS011;57598;50.888;4.746;2023-09-08T03:04:11;67.30;;;61.10;;
21569;SDS011;57598;50.888;4.746;2023-09-08T03:06:38;66.00;;;59.90;;
21569;SDS011;57598;50.888;4.746;2023-09-08T03:09:07;66.10;;;60.03;;
21569;SDS011;57598;50.888;4.746;2023-09-08T03:11:34;67.38;;;61.17;;
21569;SDS011;57598;50.888;4.746;2023-09-08T03:14:03;67.90;;;61.70;;
21569;SDS011;57598;50.888;4.746;2023-09-08T03:16:31;68.93;;;62.63;;
21569;SDS011;57598;50.888;4.746;2023-09-08T03:18:58;68.07;;;61.78;;
21569;SDS011;57598;50.888;4.746;2023-09-08T03:21:25;66.18;;;60.05;;
21569;SDS011;57598;50.888;4.746;2023-09-08T03:23:52;66.28;;;60.08;;
21569;SDS011;57598;50.888;4.746;2023-09-08T03:26:21;66.88;;;60.58;;
21569;SDS011;57598;50.888;4.746;2023-09-08T03:28:48;64.78;;;58.58;;
21569;SDS011;57598;50.888;4.746;2023-09-08T03:31:15;69.53;;;62.95;;
21569;SDS011;57598;50.888;4.746;2023-09-08T03:33:43;66.90;;;60.70;;
21569;SDS011;57598;50.888;4.746;2023-09-08T03:36:10;62.35;;;56.25;;
21569;SDS011;57598;50.888;4.746;2023-09-08T03:38:37;64.70;;;58.60;;
21569;SDS011;57598;50.888;4.746;2023-09-08T03:41:06;64.95;;;58.95;;
21569;SDS011;57598;50.888;4.746;2023-09-08T03:43:35;67.43;;;61.10;;
21569;SDS011;57598;50.888;4.746;2023-09-08T03:46:02;63.25;;;57.45;;
21569;SDS011;57598;50.888;4.746;2023-09-08T03:48:29;64.07;;;58.10;;
21569;SDS011;57598;50.888;4.746;2023-09-08T03:50:57;63.25;;;57.35;;
21569;SDS011;57598;50.888;4.746;2023-09-08T03:53:24;64.35;;;58.50;;
21569;SDS011;57598;50.888;4.746;2023-09-08T03:55:51;63.50;;;57.63;;
21569;SDS011;57598;50.888;4.746;2023-09-08T03:58:18;65.43;;;59.42;;
21569;SDS011;57598;50.888;4.746;2023-09-08T04:00:47;66.85;;;60.85;;
21569;SDS011;57598;50.888;4.746;2023-09-08T04:03:14;70.53;;;64.22;;
21569;SDS011;57598;50.888;4.746;2023-09-08T04:05:41;71.30;;;64.82;;
21569;SDS011;57598;50.888;4.746;2023-09-08T04:08:09;67.47;;;61.67;;
21569;SDS011;57598;50.888;4.746;2023-09-08T04:10:37;65.32;;;59.63;;
21569;SDS011;57598;50.888;4.746;2023-09-08T04:13:04;65.90;;;60.20;;
21569;SDS011;57598;50.888;4.746;2023-09-08T04:15:31;68.65;;;62.65;;
21569;SDS011;57598;50.888;4.746;2023-09-08T04:18:00;65.30;;;59.70;;
21569;SDS011;57598;50.888;4.746;2023-09-08T04:20:27;68.35;;;62.45;;
21569;SDS011;57598;50.888;4.746;2023-09-08T04:22:54;68.35;;;62.45;;
21569;SDS011;57598;50.888;4.746;2023-09-08T04:25:21;68.28;;;62.28;;
21569;SDS011;57598;50.888;4.746;2023-09-08T04:27:50;65.43;;;59.72;;
21569;SDS011;57598;50.888;4.746;2023-09-08T04:30:17;66.85;;;61.05;;
21569;SDS011;57598;50.888;4.746;2023-09-08T04:32:44;63.60;;;58.10;;
21569;SDS011;57598;50.888;4.746;2023-09-08T04:35:13;67.97;;;62.20;;
21569;SDS011;57598;50.888;4.746;2023-09-08T04:37:40;67.75;;;61.85;;
21569;SDS011;57598;50.888;4.746;2023-09-08T04:40:08;63.88;;;57.78;;
21569;SDS011;57598;50.888;4.746;2023-09-08T04:42:35;67.28;;;61.28;;
21569;SDS011;57598;50.888;4.746;2023-09-08T04:45:04;70.30;;;64.28;;
21569;SDS011;57598;50.888;4.746;2023-09-08T04:47:31;72.72;;;66.53;;
21569;SDS011;57598;50.888;4.746;2023-09-08T04:49:58;75.25;;;68.25;;
21569;SDS011;57598;50.888;4.746;2023-09-08T04:52:27;69.05;;;63.15;;
21569;SDS011;57598;50.888;4.746;2023-09-08T04:54:54;66.25;;;60.35;;
21569;SDS011;57598;50.888;4.746;2023-09-08T04:57:21;68.18;;;61.97;;
21569;SDS011;57598;50.888;4.746;2023-09-08T04:59:49;63.53;;;57.83;;
21569;SDS011;57598;50.888;4.746;2023-09-08T05:02:16;68.07;;;62.28;;
21569;SDS011;57598;50.888;4.746;2023-09-08T05:04:44;71.75;;;65.75;;
21569;SDS011;57598;50.888;4.746;2023-09-08T05:07:11;68.45;;;62.65;;
21569;SDS011;57598;50.888;4.746;2023-09-08T05:09:40;64.47;;;58.88;;
21569;SDS011;57598;50.888;4.746;2023-09-08T05:12:07;64.18;;;58.42;;
21569;SDS011;57598;50.888;4.746;2023-09-08T05:14:34;64.15;;;58.42;;
21569;SDS011;57598;50.888;4.746;2023-09-08T05:17:02;64.82;;;59.13;;
21569;SDS011;57598;50.888;4.746;2023-09-08T05:19:32;65.20;;;59.50;;
21569;SDS011;57598;50.888;4.746;2023-09-08T05:22:00;66.63;;;60.75;;
21569;SDS011;57598;50.888;4.746;2023-09-08T05:24:27;67.18;;;61.38;;
21569;SDS011;57598;50.888;4.746;2023-09-08T05:26:55;62.42;;;56.92;;
21569;SDS011;57598;50.888;4.746;2023-09-08T05:29:23;64.15;;;58.65;;
21569;SDS011;57598;50.888;4.746;2023-09-08T05:31:50;64.22;;;58.85;;
21569;SDS011;57598;50.888;4.746;2023-09-08T05:34:17;66.30;;;60.80;;
21569;SDS011;57598;50.888;4.746;2023-09-08T05:36:45;70.43;;;64.18;;
21569;SDS011;57598;50.888;4.746;2023-09-08T05:39:13;65.93;;;60.25;;
21569;SDS011;57598;50.888;4.746;2023-09-08T05:41:42;63.17;;;57.65;;
21569;SDS011;57598;50.888;4.746;2023-09-08T05:44:11;64.60;;;59.40;;
21569;SDS011;57598;50.888;4.746;2023-09-08T05:46:38;65.82;;;60.33;;
21569;SDS011;57598;50.888;4.746;2023-09-08T05:49:06;63.65;;;58.55;;
21569;SDS011;57598;50.888;4.746;2023-09-08T05:51:33;66.32;;;60.95;;
21569;SDS011;57598;50.888;4.746;2023-09-08T05:54:00;63.13;;;57.90;;
21569;SDS011;57598;50.888;4.746;2023-09-08T05:56:29;62.17;;;56.97;;
21569;SDS011;57598;50.888;4.746;2023-09-08T05:58:57;61.80;;;56.60;;
21569;SDS011;57598;50.888;4.746;2023-09-08T06:01:27;62.30;;;57.28;;
21569;SDS011;57598;50.888;4.746;2023-09-08T06:03:55;62.33;;;57.20;;
21569;SDS011;57598;50.888;4.746;2023-09-08T06:06:22;58.33;;;53.42;;
21569;SDS011;57598;50.888;4.746;2023-09-08T06:08:50;58.95;;;54.05;;
21569;SDS011;57598;50.888;4.746;2023-09-08T06:11:17;60.47;;;55.67;;
21569;SDS011;57598;50.888;4.746;2023-09-08T06:13:44;58.80;;;54.10;;
21569;SDS011;57598;50.888;4.746;2023-09-08T06:16:12;59.60;;;54.80;;
21569;SDS011;57598;50.888;4.746;2023-09-08T06:18:40;57.90;;;53.25;;
21569;SDS011;57598;50.888;4.746;2023-09-08T06:21:09;55.40;;;51.10;;
21569;SDS011;57598;50.888;4.746;2023-09-08T06:23:36;58.78;;;54.15;;
21569;SDS011;57598;50.888;4.746;2023-09-08T06:26:03;55.35;;;51.05;;
21569;SDS011;57598;50.888;4.746;2023-09-08T06:28:31;56.45;;;51.83;;
21569;SDS011;57598;50.888;4.746;2023-09-08T06:30:58;56.30;;;51.90;;
21569;SDS011;57598;50.888;4.746;2023-09-08T06:33:25;55.50;;;51.20;;
21569;SDS011;57598;50.888;4.746;2023-09-08T06:35:54;60.30;;;55.70;;
21569;SDS011;57598;50.888;4.746;2023-09-08T06:38:21;57.47;;;53.08;;
21569;SDS011;57598;50.888;4.746;2023-09-08T06:40:48;59.20;;;54.70;;
21569;SDS011;57598;50.888;4.746;2023-09-08T06:43:18;56.70;;;52.42;;
21569;SDS011;57598;50.888;4.746;2023-09-08T06:45:46;55.88;;;51.47;;
21569;SDS011;57598;50.888;4.746;2023-09-08T06:48:15;55.70;;;51.40;;
21569;SDS011;57598;50.888;4.746;2023-09-08T06:50:42;52.17;;;48.28;;
21569;SDS011;57598;50.888;4.746;2023-09-08T06:53:10;50.88;;;47.08;;
21569;SDS011;57598;50.888;4.746;2023-09-08T06:55:38;49.65;;;46.15;;
21569;SDS011;57598;50.888;4.746;2023-09-08T06:58:05;47.30;;;43.85;;
21569;SDS011;57598;50.888;4.746;2023-09-08T07:00:32;48.05;;;44.60;;
21569;SDS011;57598;50.888;4.746;2023-09-08T07:03:00;41.70;;;38.97;;
21569;SDS011;57598;50.888;4.746;2023-09-08T07:05:27;40.50;;;37.80;;
21569;SDS011;57598;50.888;4.746;2023-09-08T07:07:54;40.33;;;37.63;;
21569;SDS011;57598;50.888;4.746;2023-09-08T07:10:23;39.38;;;36.67;;
21569;SDS011;57598;50.888;4.746;2023-09-08T07:12:50;37.17;;;34.90;;
21569;SDS011;57598;50.888;4.746;2023-09-08T07:15:17;36.92;;;34.63;;
21569;SDS011;57598;50.888;4.746;2023-09-08T07:17:44;32.58;;;30.55;;
21569;SDS011;57598;50.888;4.746;2023-09-08T07:20:11;29.67;;;27.95;;
21569;SDS011;57598;50.888;4.746;2023-09-08T07:22:39;25.60;;;24.20;;
21569;SDS011;57598;50.888;4.746;2023-09-08T07:25:07;24.98;;;23.48;;
21569;SDS011;57598;50.888;4.746;2023-09-08T07:27:36;23.08;;;21.77;;
21569;SDS011;57598;50.888;4.746;2023-09-08T07:30:03;21.65;;;20.45;;
21569;SDS011;57598;50.888;4.746;2023-09-08T07:32:31;22.30;;;20.90;;
21569;SDS011;57598;50.888;4.746;2023-09-08T07:34:58;19.50;;;18.40;;
21569;SDS011;57598;50.888;4.746;2023-09-08T07:37:25;20.70;;;19.50;;
21569;SDS011;57598;50.888;4.746;2023-09-08T07:39:52;22.73;;;21.23;;
21569;SDS011;57598;50.888;4.746;2023-09-08T07:42:20;20.35;;;19.23;;
21569;SDS011;57598;50.888;4.746;2023-09-08T07:44:50;21.73;;;20.33;;
21569;SDS011;57598;50.888;4.746;2023-09-08T07:47:17;21.52;;;20.23;;
21569;SDS011;57598;50.888;4.746;2023-09-08T07:49:45;19.08;;;17.98;;
21569;SDS011;57598;50.888;4.746;2023-09-08T07:52:12;20.02;;;18.80;;
21569;SDS011;57598;50.888;4.746;2023-09-08T07:54:39;21.25;;;19.98;;
21569;SDS011;57598;50.888;4.746;2023-09-08T07:57:07;22.92;;;21.33;;
21569;SDS011;57598;50.888;4.746;2023-09-08T07:59:34;20.00;;;18.80;;
21569;SDS011;57598;50.888;4.746;2023-09-08T08:02:03;22.25;;;20.48;;
21569;SDS011;57598;50.888;4.746;2023-09-08T08:04:30;19.65;;;18.45;;
21569;SDS011;57598;50.888;4.746;2023-09-08T08:06:57;20.52;;;19.13;;
21569;SDS011;57598;50.888;4.746;2023-09-08T08:09:25;19.40;;;18.23;;
21569;SDS011;57598;50.888;4.746;2023-09-08T08:11:52;21.13;;;19.83;;
21569;SDS011;57598;50.888;4.746;2023-09-08T08:14:19;20.73;;;19.25;;
21569;SDS011;57598;50.888;4.746;2023-09-08T08:16:46;21.33;;;19.92;;
21569;SDS011;57598;50.888;4.746;2023-09-08T08:19:15;18.00;;;16.92;;
21569;SDS011;57598;50.888;4.746;2023-09-08T08:21:42;19.00;;;17.90;;
21569;SDS011;57598;50.888;4.746;2023-09-08T08:24:09;20.58;;;19.27;;
21569;SDS011;57598;50.888;4.746;2023-09-08T08:26:37;19.58;;;18.38;;
21569;SDS011;57598;50.888;4.746;2023-09-08T08:29:04;20.33;;;19.02;;
21569;SDS011;57598;50.888;4.746;2023-09-08T08:31:31;20.73;;;19.30;;
21569;SDS011;57598;50.888;4.746;2023-09-08T08:33:59;19.90;;;18.70;;
21569;SDS011;57598;50.888;4.746;2023-09-08T08:36:27;18.27;;;17.17;;
21569;SDS011;57598;50.888;4.746;2023-09-08T08:38:55;19.98;;;18.58;;
21569;SDS011;57598;50.888;4.746;2023-09-08T08:41:22;18.10;;;17.00;;
21569;SDS011;57598;50.888;4.746;2023-09-08T08:43:50;19.48;;;18.38;;
21569;SDS011;57598;50.888;4.746;2023-09-08T08:46:18;18.48;;;17.38;;
21569;SDS011;57598;50.888;4.746;2023-09-08T08:48:46;21.42;;;20.05;;
21569;SDS011;57598;50.888;4.746;2023-09-08T08:51:13;19.27;;;18.05;;
21569;SDS011;57598;50.888;4.746;2023-09-08T08:53:43;20.67;;;19.38;;
21569;SDS011;57598;50.888;4.746;2023-09-08T08:56:10;17.77;;;16.77;;
21569;SDS011;57598;50.888;4.746;2023-09-08T08:58:37;18.75;;;17.65;;
21569;SDS011;57598;50.888;4.746;2023-09-08T09:01:06;20.85;;;18.75;;
21569;SDS011;57598;50.888;4.746;2023-09-08T09:03:34;18.38;;;17.27;;
21569;SDS011;57598;50.888;4.746;2023-09-08T09:06:03;18.10;;;17.05;;
21569;SDS011;57598;50.888;4.746;2023-09-08T09:08:30;18.90;;;17.80;;
21569;SDS011;57598;50.888;4.746;2023-09-08T09:10:59;20.95;;;19.58;;
21569;SDS011;57598;50.888;4.746;2023-09-08T09:13:26;17.88;;;16.88;;
21569;SDS011;57598;50.888;4.746;2023-09-08T09:15:57;18.60;;;17.50;;
21569;SDS011;57598;50.888;4.746;2023-09-08T09:18:25;22.67;;;20.80;;
21569;SDS011;57598;50.888;4.746;2023-09-08T09:20:55;20.42;;;19.13;;
21569;SDS011;57598;50.888;4.746;2023-09-08T09:23:26;19.67;;;18.35;;
21569;SDS011;57598;50.888;4.746;2023-09-08T09:25:55;21.05;;;19.75;;
21569;SDS011;57598;50.888;4.746;2023-09-08T09:28:23;23.23;;;21.63;;
21569;SDS011;57598;50.888;4.746;2023-09-08T09:30:51;20.42;;;19.08;;
21569;SDS011;57598;50.888;4.746;2023-09-08T09:33:19;19.45;;;18.35;;
21569;SDS011;57598;50.888;4.746;2023-09-08T09:35:47;20.75;;;19.55;;
21569;SDS011;57598;50.888;4.746;2023-09-08T09:38:15;21.17;;;19.98;;
21569;SDS011;57598;50.888;4.746;2023-09-08T09:40:43;21.13;;;19.83;;
21569;SDS011;57598;50.888;4.746;2023-09-08T09:43:11;20.55;;;19.35;;
21569;SDS011;57598;50.888;4.746;2023-09-08T09:45:40;20.85;;;19.55;;
21569;SDS011;57598;50.888;4.746;2023-09-08T09:48:08;23.40;;;21.90;;
21569;SDS011;57598;50.888;4.746;2023-09-08T09:50:36;21.55;;;20.15;;
21569;SDS011;57598;50.888;4.746;2023-09-08T09:53:07;23.80;;;22.02;;
21569;SDS011;57598;50.888;4.746;2023-09-08T09:55:36;23.65;;;22.00;;
21569;SDS011;57598;50.888;4.746;2023-09-08T09:58:03;24.10;;;22.48;;
21569;SDS011;57598;50.888;4.746;2023-09-08T10:00:31;23.88;;;22.08;;
21569;SDS011;57598;50.888;4.746;2023-09-08T10:03:00;22.60;;;21.05;;
21569;SDS011;57598;50.888;4.746;2023-09-08T10:05:28;21.20;;;19.90;;
21569;SDS011;57598;50.888;4.746;2023-09-08T10:07:56;23.23;;;21.65;;
21569;SDS011;57598;50.888;4.746;2023-09-08T10:10:23;20.45;;;19.00;;
21569;SDS011;57598;50.888;4.746;2023-09-08T10:12:52;19.45;;;18.35;;
21569;SDS011;57598;50.888;4.746;2023-09-08T10:15:20;20.33;;;19.13;;
21569;SDS011;57598;50.888;4.746;2023-09-08T10:17:51;21.95;;;20.10;;
21569;SDS011;57598;50.888;4.746;2023-09-08T10:20:21;19.88;;;18.67;;
21569;SDS011;57598;50.888;4.746;2023-09-08T10:22:50;24.42;;;22.50;;
21569;SDS011;57598;50.888;4.746;2023-09-08T10:25:19;20.17;;;18.98;;
21569;SDS011;57598;50.888;4.746;2023-09-08T10:27:47;19.42;;;18.33;;
21569;SDS011;57598;50.888;4.746;2023-09-08T10:30:15;19.50;;;18.40;;
21569;SDS011;57598;50.888;4.746;2023-09-08T10:32:45;21.15;;;19.80;;
21569;SDS011;57598;50.888;4.746;2023-09-08T10:35:14;22.17;;;19.92;;
21569;SDS011;57598;50.888;4.746;2023-09-08T10:37:45;22.10;;;20.38;;
21569;SDS011;57598;50.888;4.746;2023-09-08T10:40:22;20.15;;;18.95;;
21569;SDS011;57598;50.888;4.746;2023-09-08T10:43:01;18.73;;;17.63;;
21569;SDS011;57598;50.888;4.746;2023-09-08T10:45:32;19.38;;;18.25;;
21569;SDS011;57598;50.888;4.746;2023-09-08T10:47:59;18.05;;;16.98;;
21569;SDS011;57598;50.888;4.746;2023-09-08T10:50:29;17.75;;;16.75;;
21569;SDS011;57598;50.888;4.746;2023-09-08T10:55:36;20.85;;;19.55;;
21569;SDS011;57598;50.888;4.746;2023-09-08T10:58:03;19.63;;;18.27;;
21569;SDS011;57598;50.888;4.746;2023-09-08T11:00:42;18.33;;;17.27;;
21569;SDS011;57598;50.888;4.746;2023-09-08T11:03:09;20.33;;;19.10;;
21569;SDS011;57598;50.888;4.746;2023-09-08T11:05:37;18.77;;;17.67;;
21569;SDS011;57598;50.888;4.746;2023-09-08T11:08:04;20.75;;;19.30;;
21569;SDS011;57598;50.888;4.746;2023-09-08T11:10:32;18.77;;;17.67;;
21569;SDS011;57598;50.888;4.746;2023-09-08T11:13:01;19.30;;;17.77;;
21569;SDS011;57598;50.888;4.746;2023-09-08T11:15:28;18.77;;;17.65;;
21569;SDS011;57598;50.888;4.746;2023-09-08T11:17:56;17.30;;;16.30;;
21569;SDS011;57598;50.888;4.746;2023-09-08T11:20:27;22.50;;;20.90;;
21569;SDS011;57598;50.888;4.746;2023-09-08T11:22:54;17.52;;;16.52;;
21569;SDS011;57598;50.888;4.746;2023-09-08T11:25:21;22.25;;;20.77;;
21569;SDS011;57598;50.888;4.746;2023-09-08T11:27:49;22.50;;;20.80;;
21569;SDS011;57598;50.888;4.746;2023-09-08T11:30:18;20.02;;;18.83;;
21569;SDS011;57598;50.888;4.746;2023-09-08T11:32:45;18.63;;;17.52;;
21569;SDS011;57598;50.888;4.746;2023-09-08T11:35:12;18.40;;;17.30;;
21569;SDS011;57598;50.888;4.746;2023-09-08T11:37:41;19.75;;;18.55;;
21569;SDS011;57598;50.888;4.746;2023-09-08T11:40:08;19.10;;;17.90;;
21569;SDS011;57598;50.888;4.746;2023-09-08T11:42:37;18.85;;;17.63;;
21569;SDS011;57598;50.888;4.746;2023-09-08T11:45:09;18.85;;;17.75;;
21569;SDS011;57598;50.888;4.746;2023-09-08T11:47:40;19.47;;;18.27;;
21569;SDS011;57598;50.888;4.746;2023-09-08T11:52:36;17.55;;;16.50;;
21569;SDS011;57598;50.888;4.746;2023-09-08T11:55:05;20.23;;;18.95;;
21569;SDS011;57598;50.888;4.746;2023-09-08T11:57:33;20.38;;;19.10;;
21569;SDS011;57598;50.888;4.746;2023-09-08T12:00:00;20.42;;;19.02;;
21569;SDS011;57598;50.888;4.746;2023-09-08T12:02:33;21.90;;;20.17;;
21569;SDS011;57598;50.888;4.746;2023-09-08T12:05:03;19.13;;;18.02;;
21569;SDS011;57598;50.888;4.746;2023-09-08T12:07:30;21.45;;;19.95;;
21569;SDS011;57598;50.888;4.746;2023-09-08T12:09:58;20.35;;;18.77;;
21569;SDS011;57598;50.888;4.746;2023-09-08T12:12:25;18.90;;;17.80;;
21569;SDS011;57598;50.888;4.746;2023-09-08T12:14:52;19.52;;;18.02;;
21569;SDS011;57598;50.888;4.746;2023-09-08T12:17:20;18.15;;;17.00;;
21569;SDS011;57598;50.888;4.746;2023-09-08T12:19:50;19.00;;;17.67;;
21569;SDS011;57598;50.888;4.746;2023-09-08T12:22:19;21.40;;;20.00;;
21569;SDS011;57598;50.888;4.746;2023-09-08T12:24:47;17.58;;;16.42;;
21569;SDS011;57598;50.888;4.746;2023-09-08T12:27:15;19.30;;;18.10;;
21569;SDS011;57598;50.888;4.746;2023-09-08T12:29:51;21.02;;;19.13;;
21569;SDS011;57598;50.888;4.746;2023-09-08T12:32:19;20.75;;;19.45;;
21569;SDS011;57598;50.888;4.746;2023-09-08T12:34:46;18.15;;;17.05;;
21569;SDS011;57598;50.888;4.746;2023-09-08T12:37:13;20.85;;;19.30;;
21569;SDS011;57598;50.888;4.746;2023-09-08T12:39:42;19.20;;;17.92;;
21569;SDS011;57598;50.888;4.746;2023-09-08T12:42:09;18.17;;;17.00;;
21569;SDS011;57598;50.888;4.746;2023-09-08T12:44:36;19.45;;;18.25;;
21569;SDS011;57598;50.888;4.746;2023-09-08T12:47:04;18.88;;;17.58;;
21569;SDS011;57598;50.888;4.746;2023-09-08T12:49:31;17.05;;;16.00;;
21569;SDS011;57598;50.888;4.746;2023-09-08T12:51:58;17.90;;;16.88;;
21569;SDS011;57598;50.888;4.746;2023-09-08T12:54:25;18.98;;;17.77;;
21569;SDS011;57598;50.888;4.746;2023-09-08T12:56:54;17.63;;;16.63;;
21569;SDS011;57598;50.888;4.746;2023-09-08T12:59:21;19.40;;;18.20;;
21569;SDS011;57598;50.888;4.746;2023-09-08T13:01:49;19.05;;;17.80;;
21569;SDS011;57598;50.888;4.746;2023-09-08T13:04:16;18.90;;;17.70;;
21569;SDS011;57598;50.888;4.746;2023-09-08T13:06:44;18.83;;;17.73;;
21569;SDS011;57598;50.888;4.746;2023-09-08T13:09:11;17.67;;;16.67;;
21569;SDS011;57598;50.888;4.746;2023-09-08T13:11:38;19.02;;;17.73;;
21569;SDS011;57598;50.888;4.746;2023-09-08T13:14:07;19.67;;;18.35;;
21569;SDS011;57598;50.888;4.746;2023-09-08T13:16:34;19.10;;;17.77;;
21569;SDS011;57598;50.888;4.746;2023-09-08T13:19:02;21.17;;;19.67;;
21569;SDS011;57598;50.888;4.746;2023-09-08T13:21:29;18.73;;;17.42;;
21569;SDS011;57598;50.888;4.746;2023-09-08T13:23:56;17.52;;;16.52;;
21569;SDS011;57598;50.888;4.746;2023-09-08T13:26:24;18.48;;;17.13;;
21569;SDS011;57598;50.888;4.746;2023-09-08T13:28:51;19.05;;;17.95;;
21569;SDS011;57598;50.888;4.746;2023-09-08T13:31:20;17.75;;;16.75;;
21569;SDS011;57598;50.888;4.746;2023-09-08T13:33:47;19.95;;;18.65;;
21569;SDS011;57598;50.888;4.746;2023-09-08T13:36:14;18.05;;;16.95;;
21569;SDS011;57598;50.888;4.746;2023-09-08T13:38:41;20.33;;;18.92;;
21569;SDS011;57598;50.888;4.746;2023-09-08T13:41:09;22.77;;;20.50;;
21569;SDS011;57598;50.888;4.746;2023-09-08T13:43:36;21.67;;;19.85;;
21569;SDS011;57598;50.888;4.746;2023-09-08T13:46:03;19.15;;;17.95;;
21569;SDS011;57598;50.888;4.746;2023-09-08T13:48:32;19.92;;;18.67;;
21569;SDS011;57598;50.888;4.746;2023-09-08T13:51:00;18.63;;;17.52;;
21569;SDS011;57598;50.888;4.746;2023-09-08T13:53:28;18.50;;;17.40;;
21569;SDS011;57598;50.888;4.746;2023-09-08T13:55:56;19.73;;;18.63;;
21569;SDS011;57598;50.888;4.746;2023-09-08T13:58:23;18.33;;;17.33;;
21569;SDS011;57598;50.888;4.746;2023-09-08T14:00:51;19.50;;;18.30;;
21569;SDS011;57598;50.888;4.746;2023-09-08T14:03:18;20.15;;;18.80;;
21569;SDS011;57598;50.888;4.746;2023-09-08T14:05:47;20.40;;;19.13;;
21569;SDS011;57598;50.888;4.746;2023-09-08T14:08:14;20.73;;;18.98;;
21569;SDS011;57598;50.888;4.746;2023-09-08T14:10:41;20.30;;;19.10;;
21569;SDS011;57598;50.888;4.746;2023-09-08T14:13:08;19.65;;;18.48;;
21569;SDS011;57598;50.888;4.746;2023-09-08T14:15:36;18.60;;;17.50;;
21569;SDS011;57598;50.888;4.746;2023-09-08T14:18:03;20.38;;;18.98;;
21569;SDS011;57598;50.888;4.746;2023-09-08T14:20:31;19.20;;;18.10;;
21569;SDS011;57598;50.888;4.746;2023-09-08T14:22:59;18.77;;;17.67;;
21569;SDS011;57598;50.888;4.746;2023-09-08T14:25:27;18.77;;;17.48;;
21569;SDS011;57598;50.888;4.746;2023-09-08T14:27:54;17.08;;;15.98;;
21569;SDS011;57598;50.888;4.746;2023-09-08T14:30:21;17.15;;;16.05;;
21569;SDS011;57598;50.888;4.746;2023-09-08T14:32:49;17.98;;;16.67;;